• Join FlightAware (Why Join?)
  • Login
  • US Flag 
02:33PM EDT


 

Airport Tracker/Info


-or-


 

Live Flight TrackerFlight Track Log ✈ CES2375 ✈ 03-Jul-2013 ✈ ZLXY / XIY - ZLGM / GOQ

Flight Track Log - Related Links

Times and Time Zones

All times are in EDT time to prevent confusion due to time zone crossing. See the CES2375 flight status page for this flight to view local times or setup timezone preferences in your user account.

Time Position Orientation Groundspeed Altitude Reporting Facility
EDT Latitude Longitude Course Direction KTS MPH feet Rate Location/Type
02:08AM 35.8324 100.3018 284° West  Level Estimated
02:09AM 35.8481 100.1774 279° West  Level Estimated
02:10AM 35.8636 100.0529 279° West  Level Estimated
02:11AM 35.8791 99.9283 279° West  Level Estimated
02:12AM 35.8944 99.8037 279° West  Level Estimated
02:13AM 35.9096 99.6791 279° West  Level Estimated
02:14AM 35.9246 99.5544 279° West  Level Estimated
02:15AM 35.9395 99.4296 278° West  Level Estimated
02:16AM 35.9543 99.3048 278° West  Level Estimated
02:17AM 35.9690 99.1800 278° West  Level Estimated
02:18AM 35.9836 99.0551 278° West  Level Estimated
02:19AM 35.9980 98.9302 278° West  Level Estimated
02:20AM 36.0122 98.8053 278° West  Level Estimated
02:21AM 36.0264 98.6802 278° West  Level Estimated
02:22AM 36.0404 98.5552 278° West  Level Estimated
02:23AM 36.0543 98.4301 278° West  Level Estimated
02:24AM 36.0681 98.3049 278° West  Level Estimated
02:25AM 36.0817 98.1797 278° West  Level Estimated
02:26AM 36.0952 98.0545 278° West  Level Estimated
02:27AM 36.1086 97.9292 278° West  Level Estimated
02:28AM 36.1218 97.8039 277° West  Level Estimated
02:29AM 36.1349 97.6786 277° West  Level Estimated
02:30AM 36.1479 97.5531 277° West  Level Estimated
02:31AM 36.1608 97.4277 277° West  Level Estimated
02:32AM 36.1735 97.3022 277° West  Level Estimated
02:33AM 36.1860 97.1767 277° West  Level Estimated
02:34AM 36.1985 97.0511 277° West  Level Estimated
02:35AM 36.2108 96.9255 277° West  Level Estimated
02:36AM 36.2230 96.7999 277° West  Level Estimated
02:37AM 36.2351 96.6742 277° West  Level Estimated
02:38AM 36.2470 96.5485 277° West  Level Estimated
02:39AM 36.2588 96.4227 277° West  Level Estimated
02:40AM 36.2705 96.2969 277° West  Level Estimated
02:41AM 36.2820 96.1711 277° West  Level Estimated
02:42AM 36.2934 96.0452 276° West  Level Estimated
02:43AM 36.3046 95.9193 276° West  Level Estimated
02:44AM 36.3158 95.7933 276° West  Level Estimated
02:45AM 36.3268 95.6674 276° West  Level Estimated
02:46AM 36.3377 95.5413 276° West  Level Estimated
02:47AM 36.3484 95.4153 276° West  Level Estimated
02:48AM 36.3590 95.2892 276° West  Level Estimated
02:49AM 36.3695 95.1631 276° West  Level Estimated
02:50AM 36.3798 95.0369 276° West  Level Estimated
02:51AM 36.3900 94.9107 276° West  Level Estimated
02:52AM 36.4000 94.7861 276° West  Level Estimated
02:53AM 36.4000 94.7861 90° East  Level Estimated
02:54AM 36.4000 94.7861 90° East  Level Estimated
02:55AM 36.4000 94.7861 90° East  Level Estimated
02:56AM 36.4000 94.7861 90° East  Level Estimated
02:57AM 36.4000 94.7861 90° East  Level Estimated
02:58AM 36.4000 94.7861 90° East  Level Estimated
02:59AM 36.4000 94.7861 90° East  Level Estimated
03:00AM 36.4000 94.7861 90° East  Level Estimated
03:01AM 36.4000 94.7861 90° East  Level Estimated
03:02AM 36.4000 94.7861 90° East  Level Estimated
03:03AM 36.4000 94.7861 90° East  Level Estimated
03:04AM 36.4000 94.7861 90° East  Level Estimated
03:05AM 36.4000 94.7861 90° East  Level Estimated
03:06AM 36.4000 94.7861 90° East  Level Estimated
03:07AM 36.4000 94.7861 90° East  Level Estimated
03:08AM 36.4000 94.7861 90° East  Level Estimated